sensor_id;sensor_type;location;lat;lon;timestamp;P1;durP1;ratioP1;P2;durP2;ratioP2
77204;SDS011;67992;46.618;18.850;2023-03-23T00:00:05;7.97;;;5.18;;
77204;SDS011;67992;46.618;18.850;2023-03-23T00:02:32;8.25;;;5.10;;
77204;SDS011;67992;46.618;18.850;2023-03-23T00:05:00;6.80;;;4.68;;
77204;SDS011;67992;46.618;18.850;2023-03-23T00:07:29;7.43;;;4.63;;
77204;SDS011;67992;46.618;18.850;2023-03-23T00:09:55;9.80;;;4.43;;
77204;SDS011;67992;46.618;18.850;2023-03-23T00:12:27;7.18;;;4.10;;
77204;SDS011;67992;46.618;18.850;2023-03-23T00:15:05;6.05;;;3.83;;
77204;SDS011;67992;46.618;18.850;2023-03-23T00:17:33;7.45;;;4.03;;
77204;SDS011;67992;46.618;18.850;2023-03-23T00:20:02;5.88;;;3.92;;
77204;SDS011;67992;46.618;18.850;2023-03-23T00:22:30;7.20;;;3.83;;
77204;SDS011;67992;46.618;18.850;2023-03-23T00:24:56;6.57;;;3.90;;
77204;SDS011;67992;46.618;18.850;2023-03-23T00:27:22;6.45;;;3.80;;
77204;SDS011;67992;46.618;18.850;2023-03-23T00:29:48;6.72;;;3.80;;
77204;SDS011;67992;46.618;18.850;2023-03-23T00:32:17;6.88;;;3.80;;
77204;SDS011;67992;46.618;18.850;2023-03-23T00:34:45;7.72;;;4.15;;
77204;SDS011;67992;46.618;18.850;2023-03-23T00:37:13;5.03;;;3.67;;
77204;SDS011;67992;46.618;18.850;2023-03-23T00:39:42;6.22;;;3.70;;
77204;SDS011;67992;46.618;18.850;2023-03-23T00:42:12;6.15;;;3.85;;
77204;SDS011;67992;46.618;18.850;2023-03-23T00:44:42;5.65;;;3.90;;
77204;SDS011;67992;46.618;18.850;2023-03-23T00:47:11;5.95;;;3.70;;
77204;SDS011;67992;46.618;18.850;2023-03-23T00:49:37;6.13;;;3.63;;
77204;SDS011;67992;46.618;18.850;2023-03-23T00:52:09;5.50;;;3.78;;
77204;SDS011;67992;46.618;18.850;2023-03-23T00:54:37;5.65;;;3.80;;
77204;SDS011;67992;46.618;18.850;2023-03-23T00:57:03;6.22;;;3.88;;
77204;SDS011;67992;46.618;18.850;2023-03-23T00:59:31;5.80;;;4.07;;
77204;SDS011;67992;46.618;18.850;2023-03-23T01:02:00;5.65;;;3.45;;
77204;SDS011;67992;46.618;18.850;2023-03-23T01:04:25;6.53;;;3.80;;
77204;SDS011;67992;46.618;18.850;2023-03-23T01:06:56;7.75;;;3.88;;
77204;SDS011;67992;46.618;18.850;2023-03-23T01:09:25;5.25;;;3.42;;
77204;SDS011;67992;46.618;18.850;2023-03-23T01:11:53;5.70;;;3.45;;
77204;SDS011;67992;46.618;18.850;2023-03-23T01:16:50;4.88;;;3.60;;
77204;SDS011;67992;46.618;18.850;2023-03-23T01:19:16;5.95;;;3.60;;
77204;SDS011;67992;46.618;18.850;2023-03-23T01:21:45;7.82;;;3.40;;
77204;SDS011;67992;46.618;18.850;2023-03-23T01:24:13;6.68;;;3.63;;
77204;SDS011;67992;46.618;18.850;2023-03-23T01:26:39;5.10;;;3.42;;
77204;SDS011;67992;46.618;18.850;2023-03-23T01:29:08;6.70;;;3.85;;
77204;SDS011;67992;46.618;18.850;2023-03-23T01:31:34;4.88;;;3.40;;
77204;SDS011;67992;46.618;18.850;2023-03-23T01:34:06;5.05;;;3.35;;
77204;SDS011;67992;46.618;18.850;2023-03-23T01:38:59;5.50;;;3.40;;
77204;SDS011;67992;46.618;18.850;2023-03-23T01:41:28;4.97;;;3.15;;
77204;SDS011;67992;46.618;18.850;2023-03-23T01:46:51;5.18;;;3.60;;
77204;SDS011;67992;46.618;18.850;2023-03-23T01:49:23;5.15;;;3.30;;
77204;SDS011;67992;46.618;18.850;2023-03-23T01:51:58;5.10;;;3.25;;
77204;SDS011;67992;46.618;18.850;2023-03-23T01:54:27;5.45;;;3.42;;
77204;SDS011;67992;46.618;18.850;2023-03-23T01:57:02;6.38;;;3.67;;
77204;SDS011;67992;46.618;18.850;2023-03-23T01:59:31;6.40;;;3.75;;
77204;SDS011;67992;46.618;18.850;2023-03-23T02:02:03;6.43;;;3.63;;
77204;SDS011;67992;46.618;18.850;2023-03-23T02:04:29;6.10;;;3.65;;
77204;SDS011;67992;46.618;18.850;2023-03-23T02:06:59;6.32;;;3.92;;
77204;SDS011;67992;46.618;18.850;2023-03-23T02:09:25;6.28;;;4.20;;
77204;SDS011;67992;46.618;18.850;2023-03-23T02:11:54;6.63;;;3.70;;
77204;SDS011;67992;46.618;18.850;2023-03-23T02:14:26;4.90;;;3.22;;
77204;SDS011;67992;46.618;18.850;2023-03-23T02:16:55;5.15;;;3.28;;
77204;SDS011;67992;46.618;18.850;2023-03-23T02:35:16;4.18;;;3.20;;
77204;SDS011;67992;46.618;18.850;2023-03-23T02:37:50;6.38;;;3.30;;
77204;SDS011;67992;46.618;18.850;2023-03-23T02:40:24;4.55;;;3.00;;
77204;SDS011;67992;46.618;18.850;2023-03-23T02:42:56;5.03;;;3.33;;
77204;SDS011;67992;46.618;18.850;2023-03-23T02:45:32;6.03;;;3.30;;
77204;SDS011;67992;46.618;18.850;2023-03-23T02:48:01;4.50;;;3.08;;
77204;SDS011;67992;46.618;18.850;2023-03-23T02:50:29;5.00;;;3.47;;
77204;SDS011;67992;46.618;18.850;2023-03-23T02:53:05;5.50;;;3.20;;
77204;SDS011;67992;46.618;18.850;2023-03-23T02:55:38;4.38;;;3.00;;
77204;SDS011;67992;46.618;18.850;2023-03-23T02:58:10;5.78;;;3.17;;
77204;SDS011;67992;46.618;18.850;2023-03-23T03:00:39;5.32;;;3.08;;
77204;SDS011;67992;46.618;18.850;2023-03-23T03:03:08;6.60;;;3.60;;
77204;SDS011;67992;46.618;18.850;2023-03-23T03:11:19;5.40;;;3.70;;
77204;SDS011;67992;46.618;18.850;2023-03-23T03:16:35;5.78;;;3.35;;
77204;SDS011;67992;46.618;18.850;2023-03-23T03:19:15;6.32;;;3.53;;
77204;SDS011;67992;46.618;18.850;2023-03-23T03:21:44;5.30;;;3.67;;
77204;SDS011;67992;46.618;18.850;2023-03-23T03:24:14;5.22;;;3.40;;
77204;SDS011;67992;46.618;18.850;2023-03-23T03:26:48;4.55;;;3.20;;
77204;SDS011;67992;46.618;18.850;2023-03-23T03:29:24;5.22;;;3.42;;
77204;SDS011;67992;46.618;18.850;2023-03-23T03:31:55;5.78;;;3.30;;
77204;SDS011;67992;46.618;18.850;2023-03-23T03:34:23;5.80;;;3.65;;
77204;SDS011;67992;46.618;18.850;2023-03-23T03:36:53;6.00;;;3.50;;
77204;SDS011;67992;46.618;18.850;2023-03-23T03:39:23;5.78;;;3.22;;
77204;SDS011;67992;46.618;18.850;2023-03-23T03:41:53;5.13;;;3.40;;
77204;SDS011;67992;46.618;18.850;2023-03-23T03:44:20;5.53;;;3.60;;
77204;SDS011;67992;46.618;18.850;2023-03-23T03:46:46;4.88;;;3.03;;
77204;SDS011;67992;46.618;18.850;2023-03-23T03:49:14;5.63;;;3.47;;
77204;SDS011;67992;46.618;18.850;2023-03-23T03:51:40;5.95;;;3.25;;
77204;SDS011;67992;46.618;18.850;2023-03-23T03:54:08;4.75;;;3.50;;
77204;SDS011;67992;46.618;18.850;2023-03-23T03:56:39;6.70;;;3.35;;
77204;SDS011;67992;46.618;18.850;2023-03-23T03:59:08;6.32;;;3.60;;
77204;SDS011;67992;46.618;18.850;2023-03-23T04:01:35;5.57;;;3.80;;
77204;SDS011;67992;46.618;18.850;2023-03-23T04:04:04;5.68;;;3.65;;
77204;SDS011;67992;46.618;18.850;2023-03-23T04:06:34;6.18;;;3.70;;
77204;SDS011;67992;46.618;18.850;2023-03-23T04:09:01;4.45;;;3.20;;
77204;SDS011;67992;46.618;18.850;2023-03-23T04:11:31;5.60;;;3.15;;
77204;SDS011;67992;46.618;18.850;2023-03-23T04:13:57;6.63;;;3.67;;
77204;SDS011;67992;46.618;18.850;2023-03-23T04:16:24;5.28;;;3.22;;
77204;SDS011;67992;46.618;18.850;2023-03-23T04:18:55;6.88;;;4.00;;
77204;SDS011;67992;46.618;18.850;2023-03-23T04:21:25;5.10;;;3.60;;
77204;SDS011;67992;46.618;18.850;2023-03-23T04:23:54;5.97;;;3.55;;
77204;SDS011;67992;46.618;18.850;2023-03-23T04:26:24;6.55;;;3.60;;
77204;SDS011;67992;46.618;18.850;2023-03-23T04:28:54;5.47;;;3.42;;
77204;SDS011;67992;46.618;18.850;2023-03-23T04:31:21;5.78;;;3.70;;
77204;SDS011;67992;46.618;18.850;2023-03-23T04:33:52;4.57;;;3.40;;
77204;SDS011;67992;46.618;18.850;2023-03-23T04:36:18;6.28;;;3.45;;
77204;SDS011;67992;46.618;18.850;2023-03-23T04:38:45;5.68;;;3.17;;
77204;SDS011;67992;46.618;18.850;2023-03-23T04:41:15;6.55;;;3.78;;
77204;SDS011;67992;46.618;18.850;2023-03-23T04:43:41;5.32;;;3.83;;
77204;SDS011;67992;46.618;18.850;2023-03-23T04:46:07;6.75;;;4.15;;
77204;SDS011;67992;46.618;18.850;2023-03-23T04:48:41;5.95;;;3.78;;
77204;SDS011;67992;46.618;18.850;2023-03-23T04:51:10;6.05;;;3.75;;
77204;SDS011;67992;46.618;18.850;2023-03-23T04:53:39;5.00;;;3.40;;
77204;SDS011;67992;46.618;18.850;2023-03-23T04:56:11;5.28;;;3.20;;
77204;SDS011;67992;46.618;18.850;2023-03-23T04:58:39;6.13;;;4.05;;
77204;SDS011;67992;46.618;18.850;2023-03-23T05:01:05;5.57;;;3.75;;
77204;SDS011;67992;46.618;18.850;2023-03-23T05:03:31;5.38;;;3.53;;
77204;SDS011;67992;46.618;18.850;2023-03-23T05:06:01;6.57;;;3.92;;
77204;SDS011;67992;46.618;18.850;2023-03-23T05:08:30;4.55;;;3.20;;
77204;SDS011;67992;46.618;18.850;2023-03-23T05:10:57;6.35;;;3.70;;
77204;SDS011;67992;46.618;18.850;2023-03-23T05:13:30;4.75;;;3.60;;
77204;SDS011;67992;46.618;18.850;2023-03-23T05:15:56;5.45;;;3.40;;
77204;SDS011;67992;46.618;18.850;2023-03-23T05:18:21;5.47;;;3.50;;
77204;SDS011;67992;46.618;18.850;2023-03-23T05:20:54;5.32;;;3.75;;
77204;SDS011;67992;46.618;18.850;2023-03-23T05:23:22;5.25;;;3.80;;
77204;SDS011;67992;46.618;18.850;2023-03-23T05:25:55;5.38;;;3.75;;
77204;SDS011;67992;46.618;18.850;2023-03-23T05:28:21;5.63;;;3.88;;
77204;SDS011;67992;46.618;18.850;2023-03-23T05:30:47;5.93;;;3.97;;
77204;SDS011;67992;46.618;18.850;2023-03-23T05:33:17;7.03;;;4.28;;
77204;SDS011;67992;46.618;18.850;2023-03-23T05:35:46;5.15;;;3.63;;
77204;SDS011;67992;46.618;18.850;2023-03-23T05:38:15;6.03;;;4.00;;
77204;SDS011;67992;46.618;18.850;2023-03-23T05:40:44;6.03;;;3.90;;
77204;SDS011;67992;46.618;18.850;2023-03-23T05:43:10;6.10;;;4.07;;
77204;SDS011;67992;46.618;18.850;2023-03-23T05:45:42;6.78;;;3.92;;
77204;SDS011;67992;46.618;18.850;2023-03-23T05:48:08;6.03;;;3.97;;
77204;SDS011;67992;46.618;18.850;2023-03-23T05:50:34;5.65;;;4.18;;
77204;SDS011;67992;46.618;18.850;2023-03-23T05:53:09;6.47;;;4.30;;
77204;SDS011;67992;46.618;18.850;2023-03-23T05:55:35;5.78;;;4.00;;
77204;SDS011;67992;46.618;18.850;2023-03-23T05:58:01;6.20;;;4.28;;
77204;SDS011;67992;46.618;18.850;2023-03-23T06:00:27;6.68;;;4.43;;
77204;SDS011;67992;46.618;18.850;2023-03-23T06:02:55;6.00;;;4.03;;
77204;SDS011;67992;46.618;18.850;2023-03-23T06:05:29;5.63;;;3.78;;
77204;SDS011;67992;46.618;18.850;2023-03-23T06:07:55;6.55;;;4.00;;
77204;SDS011;67992;46.618;18.850;2023-03-23T06:10:20;5.18;;;3.88;;
77204;SDS011;67992;46.618;18.850;2023-03-23T06:12:50;5.65;;;3.70;;
77204;SDS011;67992;46.618;18.850;2023-03-23T06:15:16;5.35;;;3.40;;
77204;SDS011;67992;46.618;18.850;2023-03-23T06:17:43;6.03;;;3.83;;
77204;SDS011;67992;46.618;18.850;2023-03-23T06:20:12;6.55;;;3.90;;
77204;SDS011;67992;46.618;18.850;2023-03-23T06:22:38;5.90;;;4.20;;
77204;SDS011;67992;46.618;18.850;2023-03-23T06:25:10;5.68;;;3.55;;
77204;SDS011;67992;46.618;18.850;2023-03-23T06:27:36;5.47;;;3.47;;
77204;SDS011;67992;46.618;18.850;2023-03-23T06:30:03;5.40;;;3.80;;
77204;SDS011;67992;46.618;18.850;2023-03-23T06:32:30;5.25;;;3.42;;
77204;SDS011;67992;46.618;18.850;2023-03-23T06:34:57;6.93;;;3.83;;
77204;SDS011;67992;46.618;18.850;2023-03-23T06:37:31;6.35;;;3.78;;
77204;SDS011;67992;46.618;18.850;2023-03-23T06:39:58;4.82;;;3.38;;
77204;SDS011;67992;46.618;18.850;2023-03-23T06:42:23;4.88;;;3.63;;
77204;SDS011;67992;46.618;18.850;2023-03-23T06:44:56;5.95;;;3.47;;
77204;SDS011;67992;46.618;18.850;2023-03-23T06:49:48;10.93;;;6.95;;
77204;SDS011;67992;46.618;18.850;2023-03-23T06:52:17;14.10;;;6.88;;
77204;SDS011;67992;46.618;18.850;2023-03-23T06:54:50;13.13;;;7.15;;
77204;SDS011;67992;46.618;18.850;2023-03-23T06:59:46;9.30;;;5.35;;
77204;SDS011;67992;46.618;18.850;2023-03-23T07:02:15;8.77;;;5.30;;
77204;SDS011;67992;46.618;18.850;2023-03-23T07:04:41;9.57;;;5.57;;
77204;SDS011;67992;46.618;18.850;2023-03-23T07:07:12;8.13;;;4.93;;
77204;SDS011;67992;46.618;18.850;2023-03-23T07:09:43;8.18;;;5.00;;
77204;SDS011;67992;46.618;18.850;2023-03-23T07:12:10;7.97;;;4.93;;
77204;SDS011;67992;46.618;18.850;2023-03-23T07:14:39;8.82;;;4.43;;
77204;SDS011;67992;46.618;18.850;2023-03-23T07:17:04;9.25;;;4.57;;
77204;SDS011;67992;46.618;18.850;2023-03-23T07:19:30;6.78;;;4.50;;
77204;SDS011;67992;46.618;18.850;2023-03-23T07:21:56;7.30;;;4.45;;
77204;SDS011;67992;46.618;18.850;2023-03-23T07:24:25;9.57;;;4.93;;
77204;SDS011;67992;46.618;18.850;2023-03-23T07:26:51;8.68;;;4.55;;
77204;SDS011;67992;46.618;18.850;2023-03-23T07:29:17;7.07;;;4.55;;
77204;SDS011;67992;46.618;18.850;2023-03-23T07:31:46;8.20;;;4.68;;
77204;SDS011;67992;46.618;18.850;2023-03-23T07:34:11;9.98;;;4.78;;
77204;SDS011;67992;46.618;18.850;2023-03-23T07:36:44;6.30;;;4.22;;
77204;SDS011;67992;46.618;18.850;2023-03-23T07:39:13;5.35;;;4.28;;
77204;SDS011;67992;46.618;18.850;2023-03-23T07:41:40;7.72;;;4.43;;
77204;SDS011;67992;46.618;18.850;2023-03-23T07:44:05;8.48;;;4.28;;
77204;SDS011;67992;46.618;18.850;2023-03-23T07:46:35;8.63;;;4.25;;
77204;SDS011;67992;46.618;18.850;2023-03-23T07:49:03;6.78;;;4.35;;
77204;SDS011;67992;46.618;18.850;2023-03-23T07:51:36;5.63;;;3.90;;
77204;SDS011;67992;46.618;18.850;2023-03-23T07:54:07;6.65;;;4.25;;
77204;SDS011;67992;46.618;18.850;2023-03-23T07:56:39;8.63;;;4.38;;
77204;SDS011;67992;46.618;18.850;2023-03-23T07:59:08;6.38;;;4.53;;
77204;SDS011;67992;46.618;18.850;2023-03-23T08:01:35;5.65;;;3.80;;
77204;SDS011;67992;46.618;18.850;2023-03-23T08:04:00;7.05;;;4.25;;
77204;SDS011;67992;46.618;18.850;2023-03-23T08:06:32;7.20;;;4.47;;
77204;SDS011;67992;46.618;18.850;2023-03-23T08:08:59;6.00;;;4.30;;
77204;SDS011;67992;46.618;18.850;2023-03-23T08:11:35;5.10;;;3.88;;
77204;SDS011;67992;46.618;18.850;2023-03-23T08:14:00;7.25;;;3.83;;
77204;SDS011;67992;46.618;18.850;2023-03-23T08:16:29;7.32;;;4.03;;
77204;SDS011;67992;46.618;18.850;2023-03-23T08:19:00;5.57;;;3.78;;
77204;SDS011;67992;46.618;18.850;2023-03-23T08:21:26;5.70;;;4.13;;
77204;SDS011;67992;46.618;18.850;2023-03-23T08:23:57;6.22;;;3.90;;
77204;SDS011;67992;46.618;18.850;2023-03-23T08:26:32;4.85;;;3.63;;
77204;SDS011;67992;46.618;18.850;2023-03-23T08:29:00;5.53;;;3.47;;
77204;SDS011;67992;46.618;18.850;2023-03-23T08:31:29;5.88;;;3.72;;
77204;SDS011;67992;46.618;18.850;2023-03-23T08:33:54;5.53;;;3.55;;
77204;SDS011;67992;46.618;18.850;2023-03-23T08:36:22;6.65;;;3.58;;
77204;SDS011;67992;46.618;18.850;2023-03-23T08:38:47;5.63;;;3.67;;
77204;SDS011;67992;46.618;18.850;2023-03-23T08:41:21;5.75;;;3.55;;
77204;SDS011;67992;46.618;18.850;2023-03-23T08:43:53;4.93;;;3.42;;
77204;SDS011;67992;46.618;18.850;2023-03-23T08:46:19;5.03;;;3.42;;
77204;SDS011;67992;46.618;18.850;2023-03-23T08:48:45;4.43;;;3.22;;
77204;SDS011;67992;46.618;18.850;2023-03-23T08:51:14;6.63;;;3.90;;
77204;SDS011;67992;46.618;18.850;2023-03-23T08:53:40;4.47;;;3.33;;
77204;SDS011;67992;46.618;18.850;2023-03-23T08:56:10;5.18;;;3.45;;
77204;SDS011;67992;46.618;18.850;2023-03-23T08:58:40;4.72;;;3.50;;
77204;SDS011;67992;46.618;18.850;2023-03-23T09:01:11;4.90;;;3.47;;
77204;SDS011;67992;46.618;18.850;2023-03-23T09:03:39;4.80;;;3.22;;
77204;SDS011;67992;46.618;18.850;2023-03-23T09:06:09;5.32;;;3.17;;
77204;SDS011;67992;46.618;18.850;2023-03-23T09:08:40;4.85;;;3.30;;
77204;SDS011;67992;46.618;18.850;2023-03-23T09:11:06;4.28;;;3.08;;
77204;SDS011;67992;46.618;18.850;2023-03-23T09:13:34;5.63;;;3.55;;
77204;SDS011;67992;46.618;18.850;2023-03-23T09:16:04;5.07;;;3.38;;
77204;SDS011;67992;46.618;18.850;2023-03-23T09:18:30;5.68;;;3.47;;
77204;SDS011;67992;46.618;18.850;2023-03-23T09:21:03;5.97;;;3.10;;
77204;SDS011;67992;46.618;18.850;2023-03-23T09:23:32;4.07;;;3.13;;
77204;SDS011;67992;46.618;18.850;2023-03-23T09:26:00;5.88;;;3.42;;
77204;SDS011;67992;46.618;18.850;2023-03-23T09:28:30;4.63;;;3.17;;
77204;SDS011;67992;46.618;18.850;2023-03-23T09:30:56;3.83;;;3.33;;
77204;SDS011;67992;46.618;18.850;2023-03-23T09:33:28;3.50;;;2.78;;
77204;SDS011;67992;46.618;18.850;2023-03-23T09:35:58;4.63;;;3.22;;
77204;SDS011;67992;46.618;18.850;2023-03-23T09:38:24;3.60;;;2.60;;
77204;SDS011;67992;46.618;18.850;2023-03-23T09:46:03;4.13;;;2.90;;
77204;SDS011;67992;46.618;18.850;2023-03-23T09:51:50;3.70;;;2.80;;
77204;SDS011;67992;46.618;18.850;2023-03-23T09:57:02;4.45;;;3.20;;
77204;SDS011;67992;46.618;18.850;2023-03-23T10:05:22;4.85;;;2.97;;
77204;SDS011;67992;46.618;18.850;2023-03-23T10:08:00;3.35;;;2.60;;
77204;SDS011;67992;46.618;18.850;2023-03-23T10:10:37;4.38;;;2.72;;
77204;SDS011;67992;46.618;18.850;2023-03-23T10:16:15;4.50;;;2.90;;
77204;SDS011;67992;46.618;18.850;2023-03-23T10:21:50;3.38;;;2.50;;
77204;SDS011;67992;46.618;18.850;2023-03-23T10:24:27;3.63;;;2.75;;
77204;SDS011;67992;46.618;18.850;2023-03-23T10:29:55;3.70;;;2.53;;
77204;SDS011;67992;46.618;18.850;2023-03-23T10:35:11;3.50;;;2.60;;
77204;SDS011;67992;46.618;18.850;2023-03-23T10:38:02;4.40;;;2.50;;
77204;SDS011;67992;46.618;18.850;2023-03-23T10:40:44;4.93;;;2.88;;
77204;SDS011;67992;46.618;18.850;2023-03-23T10:43:14;3.42;;;2.50;;
77204;SDS011;67992;46.618;18.850;2023-03-23T10:45:57;4.55;;;2.58;;
77204;SDS011;67992;46.618;18.850;2023-03-23T10:51:00;3.17;;;2.42;;
77204;SDS011;67992;46.618;18.850;2023-03-23T10:56:43;3.10;;;2.50;;
77204;SDS011;67992;46.618;18.850;2023-03-23T10:59:29;3.38;;;2.20;;
77204;SDS011;67992;46.618;18.850;2023-03-23T11:01:58;4.07;;;2.58;;
77204;SDS011;67992;46.618;18.850;2023-03-23T11:04:31;2.90;;;2.30;;
77204;SDS011;67992;46.618;18.850;2023-03-23T11:07:00;3.25;;;2.17;;
77204;SDS011;67992;46.618;18.850;2023-03-23T11:09:38;3.17;;;2.33;;
77204;SDS011;67992;46.618;18.850;2023-03-23T11:12:15;3.55;;;2.50;;
77204;SDS011;67992;46.618;18.850;2023-03-23T11:14:48;4.05;;;2.30;;
77204;SDS011;67992;46.618;18.850;2023-03-23T11:17:24;3.75;;;2.60;;
77204;SDS011;67992;46.618;18.850;2023-03-23T11:19:55;3.75;;;2.30;;
77204;SDS011;67992;46.618;18.850;2023-03-23T11:22:28;3.05;;;2.20;;
77204;SDS011;67992;46.618;18.850;2023-03-23T11:25:00;3.95;;;2.63;;
77204;SDS011;67992;46.618;18.850;2023-03-23T11:27:30;3.67;;;2.35;;
77204;SDS011;67992;46.618;18.850;2023-03-23T11:30:11;3.00;;;2.20;;
77204;SDS011;67992;46.618;18.850;2023-03-23T11:32:43;3.33;;;2.20;;
77204;SDS011;67992;46.618;18.850;2023-03-23T11:35:18;4.95;;;2.28;;
77204;SDS011;67992;46.618;18.850;2023-03-23T11:37:55;2.95;;;2.22;;
77204;SDS011;67992;46.618;18.850;2023-03-23T11:40:43;3.40;;;2.30;;
77204;SDS011;67992;46.618;18.850;2023-03-23T11:43:22;3.58;;;2.20;;
77204;SDS011;67992;46.618;18.850;2023-03-23T11:49:18;3.08;;;2.45;;
77204;SDS011;67992;46.618;18.850;2023-03-23T11:51:56;4.53;;;2.40;;
77204;SDS011;67992;46.618;18.850;2023-03-23T11:54:46;3.20;;;2.20;;
77204;SDS011;67992;46.618;18.850;2023-03-23T11:57:26;2.95;;;2.08;;
77204;SDS011;67992;46.618;18.850;2023-03-23T11:59:56;3.25;;;2.42;;
77204;SDS011;67992;46.618;18.850;2023-03-23T12:11:06;3.03;;;2.10;;
77204;SDS011;67992;46.618;18.850;2023-03-23T12:13:48;3.25;;;2.20;;
77204;SDS011;67992;46.618;18.850;2023-03-23T12:19:39;2.83;;;2.10;;
77204;SDS011;67992;46.618;18.850;2023-03-23T12:30:42;3.35;;;2.40;;
77204;SDS011;67992;46.618;18.850;2023-03-23T12:34:11;2.92;;;2.00;;
77204;SDS011;67992;46.618;18.850;2023-03-23T12:39:13;2.90;;;2.10;;
77204;SDS011;67992;46.618;18.850;2023-03-23T12:42:16;3.33;;;2.20;;
77204;SDS011;67992;46.618;18.850;2023-03-23T12:45:19;3.33;;;2.10;;
77204;SDS011;67992;46.618;18.850;2023-03-23T12:47:55;3.63;;;2.15;;
77204;SDS011;67992;46.618;18.850;2023-03-23T12:50:33;3.92;;;2.05;;
77204;SDS011;67992;46.618;18.850;2023-03-23T12:55:47;2.65;;;1.90;;
77204;SDS011;67992;46.618;18.850;2023-03-23T12:58:25;2.72;;;1.98;;
77204;SDS011;67992;46.618;18.850;2023-03-23T13:03:49;2.47;;;2.00;;
77204;SDS011;67992;46.618;18.850;2023-03-23T13:08:53;2.92;;;1.92;;
77204;SDS011;67992;46.618;18.850;2023-03-23T13:11:36;2.60;;;1.90;;
77204;SDS011;67992;46.618;18.850;2023-03-23T13:26:09;3.55;;;1.85;;
77204;SDS011;67992;46.618;18.850;2023-03-23T13:31:29;3.67;;;2.15;;
77204;SDS011;67992;46.618;18.850;2023-03-23T13:34:28;2.58;;;1.80;;
77204;SDS011;67992;46.618;18.850;2023-03-23T13:36:55;3.58;;;2.35;;
77204;SDS011;67992;46.618;18.850;2023-03-23T13:39:31;3.40;;;2.00;;
77204;SDS011;67992;46.618;18.850;2023-03-23T13:44:57;2.90;;;1.77;;
77204;SDS011;67992;46.618;18.850;2023-03-23T13:47:49;3.08;;;2.03;;
77204;SDS011;67992;46.618;18.850;2023-03-23T13:50:31;2.85;;;1.80;;
77204;SDS011;67992;46.618;18.850;2023-03-23T13:53:30;2.88;;;1.88;;
77204;SDS011;67992;46.618;18.850;2023-03-23T13:58:49;2.53;;;2.00;;
77204;SDS011;67992;46.618;18.850;2023-03-23T14:01:32;2.53;;;1.80;;
77204;SDS011;67992;46.618;18.850;2023-03-23T14:04:06;2.30;;;1.73;;
77204;SDS011;67992;46.618;18.850;2023-03-23T14:06:39;3.72;;;1.75;;
77204;SDS011;67992;46.618;18.850;2023-03-23T14:09:18;3.00;;;1.88;;
77204;SDS011;67992;46.618;18.850;2023-03-23T14:11:55;2.70;;;1.80;;
77204;SDS011;67992;46.618;18.850;2023-03-23T14:14:47;2.72;;;1.80;;
77204;SDS011;67992;46.618;18.850;2023-03-23T14:19:46;2.70;;;1.80;;
77204;SDS011;67992;46.618;18.850;2023-03-23T14:22:24;2.92;;;1.88;;
77204;SDS011;67992;46.618;18.850;2023-03-23T14:25:19;3.08;;;1.98;;
77204;SDS011;67992;46.618;18.850;2023-03-23T14:27:46;3.08;;;1.98;;
77204;SDS011;67992;46.618;18.850;2023-03-23T14:30:13;2.60;;;1.73;;
77204;SDS011;67992;46.618;18.850;2023-03-23T14:32:47;2.47;;;1.70;;
77204;SDS011;67992;46.618;18.850;2023-03-23T14:37:48;3.63;;;2.00;;
77204;SDS011;67992;46.618;18.850;2023-03-23T14:40:17;4.60;;;2.10;;
77204;SDS011;67992;46.618;18.850;2023-03-23T14:42:44;3.22;;;1.80;;
77204;SDS011;67992;46.618;18.850;2023-03-23T14:45:12;2.55;;;1.83;;
77204;SDS011;67992;46.618;18.850;2023-03-23T14:47:45;3.47;;;1.77;;
77204;SDS011;67992;46.618;18.850;2023-03-23T14:52:59;3.13;;;1.90;;
77204;SDS011;67992;46.618;18.850;2023-03-23T14:55:31;2.85;;;1.70;;
77204;SDS011;67992;46.618;18.850;2023-03-23T14:58:07;2.53;;;1.90;;
77204;SDS011;67992;46.618;18.850;2023-03-23T15:00:35;3.47;;;1.80;;
77204;SDS011;67992;46.618;18.850;2023-03-23T15:03:12;2.83;;;1.73;;
77204;SDS011;67992;46.618;18.850;2023-03-23T15:05:43;2.67;;;1.75;;
77204;SDS011;67992;46.618;18.850;2023-03-23T15:08:17;3.13;;;1.80;;
77204;SDS011;67992;46.618;18.850;2023-03-23T15:11:22;2.42;;;1.80;;
77204;SDS011;67992;46.618;18.850;2023-03-23T15:13:51;2.60;;;1.90;;
77204;SDS011;67992;46.618;18.850;2023-03-23T15:16:21;3.05;;;1.90;;
77204;SDS011;67992;46.618;18.850;2023-03-23T15:18:50;2.42;;;1.80;;
77204;SDS011;67992;46.618;18.850;2023-03-23T15:21:45;2.53;;;1.90;;
77204;SDS011;67992;46.618;18.850;2023-03-23T15:24:39;3.08;;;1.90;;
77204;SDS011;67992;46.618;18.850;2023-03-23T15:29:51;2.33;;;1.65;;
77204;SDS011;67992;46.618;18.850;2023-03-23T15:32:22;2.78;;;1.90;;
77204;SDS011;67992;46.618;18.850;2023-03-23T15:34:54;3.40;;;1.95;;
77204;SDS011;67992;46.618;18.850;2023-03-23T15:37:28;2.42;;;1.83;;
77204;SDS011;67992;46.618;18.850;2023-03-23T15:39:55;2.60;;;1.80;;
77204;SDS011;67992;46.618;18.850;2023-03-23T15:42:29;3.25;;;1.80;;
77204;SDS011;67992;46.618;18.850;2023-03-23T15:50:16;2.95;;;1.80;;
77204;SDS011;67992;46.618;18.850;2023-03-23T15:52:44;2.85;;;2.13;;
77204;SDS011;67992;46.618;18.850;2023-03-23T15:57:55;2.75;;;2.00;;
77204;SDS011;67992;46.618;18.850;2023-03-23T16:00:22;2.97;;;1.88;;
77204;SDS011;67992;46.618;18.850;2023-03-23T16:02:54;2.40;;;1.85;;
77204;SDS011;67992;46.618;18.850;2023-03-23T16:05:26;2.85;;;2.00;;
77204;SDS011;67992;46.618;18.850;2023-03-23T16:07:52;3.20;;;1.95;;
77204;SDS011;67992;46.618;18.850;2023-03-23T16:10:22;2.33;;;1.70;;
77204;SDS011;67992;46.618;18.850;2023-03-23T16:13:01;3.33;;;1.88;;
77204;SDS011;67992;46.618;18.850;2023-03-23T16:15:29;3.25;;;2.00;;
77204;SDS011;67992;46.618;18.850;2023-03-23T16:18:01;5.43;;;1.90;;
77204;SDS011;67992;46.618;18.850;2023-03-23T16:20:30;5.05;;;1.90;;
77204;SDS011;67992;46.618;18.850;2023-03-23T16:22:57;3.72;;;2.03;;
77204;SDS011;67992;46.618;18.850;2023-03-23T16:25:26;3.33;;;1.90;;
77204;SDS011;67992;46.618;18.850;2023-03-23T16:27:52;2.63;;;1.95;;
77204;SDS011;67992;46.618;18.850;2023-03-23T16:30:22;4.47;;;2.03;;
77204;SDS011;67992;46.618;18.850;2023-03-23T16:32:49;3.70;;;2.08;;
77204;SDS011;67992;46.618;18.850;2023-03-23T16:35:16;3.05;;;1.80;;
77204;SDS011;67992;46.618;18.850;2023-03-23T16:37:46;3.03;;;1.90;;
77204;SDS011;67992;46.618;18.850;2023-03-23T16:40:24;3.15;;;1.98;;
77204;SDS011;67992;46.618;18.850;2023-03-23T16:42:58;2.65;;;1.80;;
77204;SDS011;67992;46.618;18.850;2023-03-23T16:45:30;3.47;;;2.00;;
77204;SDS011;67992;46.618;18.850;2023-03-23T16:47:56;2.80;;;2.00;;
77204;SDS011;67992;46.618;18.850;2023-03-23T16:50:29;2.50;;;1.83;;
77204;SDS011;67992;46.618;18.850;2023-03-23T16:52:55;3.33;;;2.05;;
77204;SDS011;67992;46.618;18.850;2023-03-23T16:55:23;3.58;;;2.10;;
77204;SDS011;67992;46.618;18.850;2023-03-23T16:57:51;3.03;;;2.20;;
77204;SDS011;67992;46.618;18.850;2023-03-23T17:00:24;2.85;;;1.95;;
77204;SDS011;67992;46.618;18.850;2023-03-23T17:02:51;4.28;;;2.25;;
77204;SDS011;67992;46.618;18.850;2023-03-23T17:05:21;3.78;;;2.42;;
77204;SDS011;67992;46.618;18.850;2023-03-23T17:07:51;4.22;;;2.70;;
77204;SDS011;67992;46.618;18.850;2023-03-23T17:10:19;4.07;;;2.75;;
77204;SDS011;67992;46.618;18.850;2023-03-23T17:12:51;5.05;;;2.80;;
77204;SDS011;67992;46.618;18.850;2023-03-23T17:15:20;4.18;;;2.70;;
77204;SDS011;67992;46.618;18.850;2023-03-23T17:17:53;3.67;;;2.80;;
77204;SDS011;67992;46.618;18.850;2023-03-23T17:20:19;3.75;;;2.50;;